Time;durP1;ratioP1;P1;durP2;ratioP2;P2;SDS_P1;SDS_P2;PMS_P1;PMS_P2;Temp;Humidity;BMP_temperature;BMP_pressure;BME280_temperature;BME280_humidity;BME280_pressure;Samples;Min_cycle;Max_cycle;Signal;HPM_P1;HPM_P2
2024/04/04 00:00:53;;;;;;;3.70;1.17;;;;;;;14.97;61.45;97082.84;5044005;28;20445;-72
2024/04/04 00:03:18;;;;;;;4.47;1.40;;;;;;;15.19;61.17;97081.91;5044965;28;20190;-72
2024/04/04 00:05:48;;;;;;;5.30;1.63;;;;;;;15.27;60.91;97082.78;5029644;28;20182;-73
2024/04/04 00:08:14;;;;;;;3.27;1.67;;;;;;;15.29;60.82;97075.50;5046333;28;20211;-70
2024/04/04 00:10:39;;;;;;;6.60;1.33;;;;;;;15.31;60.75;97073.50;5013905;28;20529;-71
2024/04/04 00:13:05;;;;;;;2.50;1.20;;;;;;;15.24;60.68;97083.97;5037519;28;20191;-71
2024/04/04 00:15:30;;;;;;;3.80;1.20;;;;;;;15.36;60.21;97082.50;5033561;28;20247;-70
2024/04/04 00:17:56;;;;;;;2.13;0.90;;;;;;;15.29;60.25;97081.63;5034234;28;20239;-72
2024/04/04 00:20:21;;;;;;;2.80;1.10;;;;;;;15.31;60.27;97084.06;5039996;28;20194;-71
2024/04/04 00:22:46;;;;;;;2.50;1.10;;;;;;;15.35;60.20;97078.22;5036034;28;20199;-72
2024/04/04 00:25:13;;;;;;;4.30;1.27;;;;;;;15.39;59.73;97077.84;5036229;28;20690;-71
2024/04/04 00:27:38;;;;;;;5.00;1.10;;;;;;;15.40;59.64;97085.56;5022916;28;20196;-71
2024/04/04 00:30:04;;;;;;;3.23;1.10;;;;;;;15.40;59.50;97085.56;5037795;28;20524;-73
2024/04/04 00:32:30;;;;;;;1.40;0.83;;;;;;;15.25;59.61;97085.63;5027331;28;20254;-72
2024/04/04 00:34:55;;;;;;;6.57;1.30;;;;;;;15.30;59.50;97087.69;5022648;28;20430;-72
2024/04/04 00:37:21;;;;;;;2.83;1.10;;;;;;;15.38;59.37;97092.84;5027911;28;20216;-70
2024/04/04 00:39:46;;;;;;;4.10;1.17;;;;;;;15.30;59.36;97083.25;5030966;28;20239;-72
2024/04/04 00:42:12;;;;;;;2.77;1.40;;;;;;;15.29;59.27;97086.88;5035005;28;20192;-72
2024/04/04 00:44:37;;;;;;;3.27;1.03;;;;;;;15.16;59.36;97098.09;5036972;28;20205;-72
2024/04/04 00:47:03;;;;;;;3.83;1.30;;;;;;;15.26;59.27;97091.69;5036973;28;20225;-72
2024/04/04 00:49:28;;;;;;;3.80;1.30;;;;;;;15.26;59.28;97096.97;5034317;28;20306;-73
2024/04/04 00:51:54;;;;;;;3.20;1.33;;;;;;;15.35;59.01;97103.81;5033991;28;20194;-73
2024/04/04 00:54:19;;;;;;;4.50;1.00;;;;;;;15.31;58.98;97103.34;5038642;28;20183;-72
2024/04/04 00:56:46;;;;;;;2.73;1.00;;;;;;;15.34;58.93;97099.53;5030576;28;20302;-72
2024/04/04 00:59:13;;;;;;;1.93;1.00;;;;;;;15.29;58.80;97104.53;5023914;28;20262;-71
2024/04/04 01:01:42;;;;;;;2.20;1.03;;;;;;;15.36;58.63;97103.63;5033195;28;20435;-73
2024/04/04 01:04:08;;;;;;;5.57;1.50;;;;;;;15.38;58.56;97105.25;5039907;28;20853;-72
2024/04/04 01:06:33;;;;;;;2.70;1.00;;;;;;;15.39;58.35;97110.34;5043536;28;20434;-72
2024/04/04 01:09:00;;;;;;;1.57;0.90;;;;;;;15.36;58.63;97102.81;5014747;28;20566;-71
2024/04/04 01:11:25;;;;;;;1.73;1.10;;;;;;;15.38;58.57;97106.06;5028167;28;20214;-72
2024/04/04 01:13:51;;;;;;;4.43;1.17;;;;;;;15.37;58.53;97099.16;5033227;28;20461;-72
2024/04/04 01:16:16;;;;;;;2.80;1.20;;;;;;;15.37;58.35;97101.81;5035012;28;20216;-72
2024/04/04 01:18:43;;;;;;;1.63;0.90;;;;;;;15.25;58.41;97088.25;5032519;28;20314;-72
2024/04/04 01:21:08;;;;;;;3.10;1.00;;;;;;;15.25;58.29;97090.09;5040870;28;20521;-72
2024/04/04 01:23:33;;;;;;;2.27;0.90;;;;;;;15.19;58.47;97087.19;5036155;28;20264;-72
2024/04/04 01:25:59;;;;;;;4.43;1.10;;;;;;;15.05;58.66;97088.00;5026386;28;20230;-72
2024/04/04 01:28:24;;;;;;;1.77;0.80;;;;;;;15.23;58.32;97089.44;5035784;28;20298;-72
2024/04/04 01:30:50;;;;;;;3.67;1.00;;;;;;;15.23;58.25;97092.09;5034702;28;20191;-72
2024/04/04 01:33:15;;;;;;;6.17;1.10;;;;;;;15.23;58.18;97095.53;5025789;28;20625;-71
2024/04/04 01:35:41;;;;;;;2.17;0.90;;;;;;;15.18;58.21;97090.81;5031443;28;20693;-72
2024/04/04 01:38:06;;;;;;;2.60;0.70;;;;;;;15.24;58.12;97099.81;5029716;28;20646;-72
2024/04/04 01:40:32;;;;;;;6.87;1.17;;;;;;;15.14;58.22;97096.66;5023028;28;20586;-72
2024/04/04 01:42:57;;;;;;;2.37;0.93;;;;;;;15.24;57.77;97106.94;5040433;28;20624;-71
2024/04/04 01:45:22;;;;;;;5.43;1.17;;;;;;;15.27;58.17;97103.91;5036373;28;20278;-72
2024/04/04 01:47:48;;;;;;;6.10;1.60;;;;;;;15.24;58.27;97101.66;5023340;28;20303;-71
2024/04/04 01:50:13;;;;;;;1.67;1.10;;;;;;;15.33;58.15;97103.97;5039399;28;20314;-71
2024/04/04 01:52:39;;;;;;;3.20;1.20;;;;;;;15.38;58.18;97105.25;5030396;28;20202;-73
2024/04/04 01:55:04;;;;;;;8.33;1.10;;;;;;;15.43;57.98;97108.19;5027793;28;20617;-72
2024/04/04 01:57:30;;;;;;;2.00;0.80;;;;;;;15.43;58.08;97106.34;5022782;28;20620;-71
2024/04/04 01:59:55;;;;;;;2.47;0.77;;;;;;;15.37;58.29;97104.44;5033827;28;20256;-72
2024/04/04 02:02:21;;;;;;;4.40;1.00;;;;;;;15.37;58.42;97104.44;5034191;28;20267;-72
2024/04/04 02:04:46;;;;;;;2.60;0.90;;;;;;;15.30;58.99;97092.97;5036892;28;20199;-72
2024/04/04 02:07:12;;;;;;;2.60;1.07;;;;;;;15.36;58.84;97092.25;5026201;28;20250;-69
2024/04/04 02:09:37;;;;;;;4.23;1.10;;;;;;;15.40;59.35;97096.13;5041917;28;20210;-72
2024/04/04 02:12:02;;;;;;;3.00;1.40;;;;;;;15.41;59.05;97091.69;5033727;28;20199;-72
2024/04/04 02:14:28;;;;;;;3.77;1.00;;;;;;;15.40;59.31;97090.84;5041209;28;20695;-72
2024/04/04 02:16:55;;;;;;;3.20;1.00;;;;;;;15.37;59.50;97088.59;5038407;28;20210;-72
2024/04/04 02:19:20;;;;;;;2.07;1.00;;;;;;;15.42;59.15;97091.50;5037776;28;20235;-72
2024/04/04 02:21:46;;;;;;;3.13;1.20;;;;;;;15.41;59.51;97083.78;5042822;28;21011;-73
2024/04/04 02:24:11;;;;;;;2.40;0.90;;;;;;;15.39;59.37;97086.56;5032853;28;20222;-72
2024/04/04 02:26:37;;;;;;;1.20;0.70;;;;;;;15.27;59.89;97086.25;5026720;28;20198;-73
2024/04/04 02:29:03;;;;;;;6.07;1.10;;;;;;;15.29;59.72;97086.88;5043283;28;20622;-73
2024/04/04 02:31:28;;;;;;;2.80;1.10;;;;;;;15.29;59.83;97086.88;5033859;28;20219;-71
2024/04/04 02:33:53;;;;;;;3.33;0.93;;;;;;;15.29;59.64;97080.78;5038151;28;20653;-72
2024/04/04 02:36:19;;;;;;;2.37;1.10;;;;;;;15.24;59.84;97080.53;5037990;28;20295;-73
2024/04/04 02:38:44;;;;;;;2.13;0.90;;;;;;;15.25;60.10;97087.44;5034516;28;20250;-72
2024/04/04 02:41:10;;;;;;;4.97;1.23;;;;;;;15.14;60.39;97089.53;5039137;28;20282;-70
2024/04/04 02:43:35;;;;;;;3.20;1.30;;;;;;;15.16;60.30;97086.72;5034358;28;20200;-71
2024/04/04 02:46:02;;;;;;;2.67;1.20;;;;;;;15.15;60.26;97093.81;5040334;28;20724;-72
2024/04/04 02:48:28;;;;;;;3.10;1.30;;;;;;;15.16;60.35;97092.81;5024949;28;20290;-72
2024/04/04 02:50:54;;;;;;;2.30;1.20;;;;;;;15.22;60.29;97085.19;5035916;28;20533;-71
2024/04/04 02:53:20;;;;;;;3.97;1.10;;;;;;;15.25;60.48;97096.19;5036158;28;20200;-73
2024/04/04 02:55:53;;;;;;;2.43;1.07;;;;;;;15.22;60.32;97090.47;5031345;28;20464;-72
2024/04/04 02:58:18;;;;;;;1.40;0.80;;;;;;;15.24;60.37;97091.09;5019558;28;20215;-72
2024/04/04 03:00:44;;;;;;;9.60;1.20;;;;;;;15.21;60.24;97094.91;5032257;28;20430;-72
2024/04/04 03:03:09;;;;;;;3.70;1.30;;;;;;;15.22;60.46;97078.06;5042817;28;20550;-72
2024/04/04 03:05:39;;;;;;;3.03;0.90;;;;;;;15.19;60.39;97088.97;5030534;28;20564;-71
2024/04/04 03:08:06;;;;;;;4.37;1.00;;;;;;;15.24;60.43;97091.09;5023333;28;20230;-71
2024/04/04 03:10:32;;;;;;;2.27;1.10;;;;;;;15.23;60.32;97082.34;5029575;28;20958;-72
2024/04/04 03:12:57;;;;;;;1.80;1.13;;;;;;;15.28;60.42;97079.13;5031641;28;20430;-71
2024/04/04 03:15:23;;;;;;;1.40;1.10;;;;;;;15.23;60.42;97078.91;5038513;28;20193;-72
2024/04/04 03:17:48;;;;;;;1.30;0.90;;;;;;;15.24;60.39;97077.91;5021908;28;20371;-72
2024/04/04 03:20:14;;;;;;;3.60;1.00;;;;;;;15.24;60.10;97072.63;5030780;28;20354;-71
2024/04/04 03:22:39;;;;;;;2.53;0.90;;;;;;;15.22;60.21;97069.34;5040417;28;20207;-70
2024/04/04 03:25:05;;;;;;;3.00;0.83;;;;;;;15.15;60.29;97075.34;5037384;28;20278;-70
2024/04/04 03:27:31;;;;;;;2.47;1.10;;;;;;;15.30;60.35;97074.50;5029033;28;20354;-70
2024/04/04 03:29:56;;;;;;;9.90;0.93;;;;;;;15.26;60.13;97071.41;5031054;28;20559;-72
2024/04/04 03:32:22;;;;;;;3.20;1.00;;;;;;;15.27;59.95;97061.66;5036878;28;20252;-72
2024/04/04 03:34:48;;;;;;;2.40;0.90;;;;;;;15.23;60.08;97060.41;5031758;28;20223;-72
2024/04/04 03:37:13;;;;;;;3.83;1.27;;;;;;;15.24;60.24;97075.25;5033710;28;20659;-71
2024/04/04 03:39:39;;;;;;;4.70;1.13;;;;;;;15.23;59.97;97074.41;5049323;28;20257;-73
2024/04/04 03:42:05;;;;;;;4.67;1.17;;;;;;;15.12;60.25;97070.41;5031285;28;20602;-70
2024/04/04 03:44:31;;;;;;;2.03;0.90;;;;;;;15.14;60.19;97057.06;5039543;28;20332;-69
2024/04/04 03:46:57;;;;;;;2.20;0.80;;;;;;;15.12;60.30;97059.06;5032098;28;20927;-72
2024/04/04 03:49:23;;;;;;;4.20;1.13;;;;;;;15.13;60.14;97055.41;5036056;28;20446;-73
2024/04/04 03:51:49;;;;;;;3.60;1.17;;;;;;;15.10;60.14;97061.91;5029585;28;20199;-71
2024/04/04 03:54:15;;;;;;;2.77;0.90;;;;;;;15.05;60.06;97058.97;5032946;28;20199;-72
2024/04/04 03:56:40;;;;;;;2.53;0.83;;;;;;;14.99;60.29;97070.28;5028082;28;20552;-72
2024/04/04 03:59:05;;;;;;;4.03;1.00;;;;;;;14.77;61.11;97074.66;5033665;28;20211;-71
2024/04/04 04:01:31;;;;;;;2.60;1.30;;;;;;;14.84;60.91;97080.81;5037324;28;20674;-71
2024/04/04 04:03:56;;;;;;;1.90;0.80;;;;;;;14.93;60.56;97077.13;5043177;28;20191;-70
2024/04/04 04:06:22;;;;;;;3.70;0.97;;;;;;;15.02;60.32;97076.00;5033765;28;20219;-72
2024/04/04 04:08:47;;;;;;;1.50;0.80;;;;;;;15.00;60.46;97079.81;5031360;28;20943;-70
2024/04/04 04:11:13;;;;;;;4.00;1.20;;;;;;;14.96;60.50;97065.38;5028366;28;20268;-70
2024/04/04 04:13:38;;;;;;;2.07;0.83;;;;;;;15.04;60.51;97070.53;5021735;28;20218;-71
2024/04/04 04:16:04;;;;;;;2.63;0.97;;;;;;;14.83;61.04;97082.66;5042884;28;20216;-72
2024/04/04 04:18:30;;;;;;;4.97;0.80;;;;;;;14.82;61.03;97081.03;5018515;28;20224;-71
2024/04/04 04:23:40;;;;;;;1.57;0.70;;;;;;;14.84;61.12;97078.19;5016434;28;20192;-73
2024/04/04 04:26:05;;;;;;;2.03;0.80;;;;;;;14.84;61.12;97078.19;5036287;28;20901;-70
2024/04/04 04:28:30;;;;;;;5.33;0.90;;;;;;;14.84;60.97;97078.19;5041225;28;20211;-72
2024/04/04 04:30:56;;;;;;;5.40;1.07;;;;;;;14.74;61.33;97083.75;5047361;28;20577;-72
2024/04/04 04:33:22;;;;;;;3.53;1.00;;;;;;;14.77;60.97;97072.03;5035631;28;20206;-72
2024/04/04 04:35:47;;;;;;;3.20;1.23;;;;;;;14.85;60.95;97075.38;5032225;28;20237;-72
2024/04/04 04:38:13;;;;;;;2.80;1.10;;;;;;;14.92;60.88;97072.84;5039009;28;20214;-71
2024/04/04 04:40:41;;;;;;;1.43;0.90;;;;;;;14.93;60.89;97071.00;5035631;28;20213;-73
2024/04/04 04:43:06;;;;;;;3.37;0.80;;;;;;;14.89;61.02;97068.72;5041991;28;20231;-72
2024/04/04 04:45:32;;;;;;;2.83;0.90;;;;;;;14.80;61.13;97063.75;5039503;28;20517;-71
2024/04/04 04:47:57;;;;;;;2.23;0.90;;;;;;;14.82;60.85;97062.56;5035722;28;20568;-71
2024/04/04 04:50:23;;;;;;;2.80;1.00;;;;;;;14.82;61.04;97069.63;5025218;28;20189;-72
2024/04/04 04:52:48;;;;;;;1.90;0.90;;;;;;;14.78;61.07;97071.81;5043115;28;20187;-71
2024/04/04 04:55:14;;;;;;;3.13;1.20;;;;;;;14.86;60.89;97076.19;5025431;28;20220;-72
2024/04/04 04:57:39;;;;;;;2.60;1.00;;;;;;;14.83;60.74;97072.09;5021620;28;20203;-72
2024/04/04 05:00:09;;;;;;;2.20;1.10;;;;;;;14.85;60.76;97062.19;5034388;28;20199;-71
2024/04/04 05:02:35;;;;;;;2.03;1.13;;;;;;;14.87;61.00;97070.72;5038351;28;20201;-72
2024/04/04 05:05:14;;;;;;;2.23;0.80;;;;;;;14.72;61.13;97062.00;5036544;28;20434;-72
2024/04/04 05:07:41;;;;;;;3.30;0.70;;;;;;;14.77;61.08;97062.28;5028475;28;20332;-73
2024/04/04 05:10:06;;;;;;;4.17;1.13;;;;;;;14.80;61.08;97055.84;5017972;28;20447;-71
2024/04/04 05:12:32;;;;;;;1.77;0.90;;;;;;;14.81;60.92;97058.28;5025512;28;20434;-71
2024/04/04 05:14:58;;;;;;;1.73;0.90;;;;;;;14.83;60.82;97061.56;5032750;28;21081;-71
2024/04/04 05:17:23;;;;;;;1.90;0.77;;;;;;;14.75;61.09;97059.00;5043016;28;20462;-72
2024/04/04 05:19:49;;;;;;;3.23;0.90;;;;;;;14.73;61.23;97045.19;5033918;28;20228;-71
2024/04/04 05:22:14;;;;;;;3.03;1.03;;;;;;;14.70;61.32;97051.63;5037238;28;20202;-70
2024/04/04 05:24:40;;;;;;;2.80;1.00;;;;;;;14.68;61.62;97044.91;5031371;28;20191;-71
2024/04/04 05:27:05;;;;;;;2.17;0.93;;;;;;;14.79;61.18;97048.91;5035442;28;20193;-71
2024/04/04 05:29:31;;;;;;;3.53;1.10;;;;;;;14.82;61.20;97053.81;5024645;28;20239;-71
2024/04/04 05:31:56;;;;;;;4.77;1.33;;;;;;;14.72;61.07;97049.63;5035483;28;20191;-71
2024/04/04 05:34:26;;;;;;;2.40;1.10;;;;;;;14.74;61.16;97049.47;5032755;28;20200;-71
2024/04/04 05:36:51;;;;;;;2.90;1.20;;;;;;;14.92;60.96;97048.25;5029986;28;20218;-72
2024/04/04 05:39:17;;;;;;;3.20;1.20;;;;;;;14.96;60.67;97045.06;5028803;28;20446;-71
2024/04/04 05:41:42;;;;;;;7.63;1.00;;;;;;;14.81;60.91;97058.28;5027715;28;20288;-72
2024/04/04 05:44:08;;;;;;;2.03;0.90;;;;;;;14.94;60.78;97056.81;5027433;28;20229;-71
2024/04/04 05:46:33;;;;;;;8.50;1.37;;;;;;;14.92;60.49;97045.63;5033298;28;20573;-70
2024/04/04 05:48:58;;;;;;;3.73;1.27;;;;;;;14.86;60.62;97045.38;5030827;28;20235;-72
2024/04/04 05:51:24;;;;;;;6.43;1.40;;;;;;;14.92;60.30;97043.81;5038346;28;20223;-72
2024/04/04 05:53:50;;;;;;;6.10;1.43;;;;;;;14.97;60.21;97045.91;5037353;28;20199;-71
2024/04/04 05:56:15;;;;;;;13.33;1.33;;;;;;;15.04;59.79;97052.06;5036357;28;20211;-71
2024/04/04 05:58:41;;;;;;;8.40;1.50;;;;;;;15.22;59.68;97049.03;5024495;28;20739;-71
2024/04/04 06:01:06;;;;;;;6.20;1.67;;;;;;;15.31;59.42;97047.09;5026678;28;20238;-71
2024/04/04 06:03:32;;;;;;;4.13;1.63;;;;;;;15.28;59.18;97053.56;5032985;28;20426;-72
2024/04/04 06:05:57;;;;;;;3.83;1.50;;;;;;;15.38;59.03;97057.72;5029087;28;20271;-71
2024/04/04 06:08:23;;;;;;;2.90;1.33;;;;;;;15.39;59.01;97054.09;5042865;28;20553;-73
2024/04/04 06:10:48;;;;;;;3.63;1.20;;;;;;;15.43;58.77;97050.88;5029008;28;20191;-72
2024/04/04 06:13:14;;;;;;;8.67;1.17;;;;;;;15.35;58.95;97043.09;5039712;28;20287;-73
2024/04/04 06:15:41;;;;;;;3.83;1.20;;;;;;;15.35;58.82;97041.25;5030154;28;20234;-71
2024/04/04 06:18:06;;;;;;;8.80;1.83;;;;;;;15.51;59.12;97037.56;5032196;28;20224;-72
2024/04/04 06:20:32;;;;;;;6.73;1.40;;;;;;;15.76;58.11;97034.53;5033731;28;20459;-71
2024/04/04 06:22:57;;;;;;;5.53;1.53;;;;;;;15.58;57.63;97031.53;5030789;28;20812;-70
2024/04/04 06:25:22;;;;;;;6.97;1.50;;;;;;;15.38;58.25;97031.31;5034251;28;20255;-74
2024/04/04 06:27:51;;;;;;;8.50;1.50;;;;;;;15.60;57.90;97018.97;5032470;28;20180;-73
2024/04/04 06:30:16;;;;;;;2.40;1.27;;;;;;;15.71;57.36;97036.09;5023832;28;20191;-72
2024/04/04 06:32:41;;;;;;;7.13;1.90;;;;;;;15.84;57.26;97038.06;5034039;28;20450;-73
2024/04/04 06:35:07;;;;;;;9.33;1.50;;;;;;;15.80;56.89;97035.81;5031179;28;20234;-73
2024/04/04 06:37:32;;;;;;;7.10;1.50;;;;;;;15.91;56.49;97038.97;5030545;28;20211;-73
2024/04/04 06:39:58;;;;;;;5.87;2.10;;;;;;;15.82;56.46;97054.09;5033127;28;20696;-72
2024/04/04 06:42:23;;;;;;;4.57;1.73;;;;;;;15.82;56.43;97048.81;5047053;28;20684;-72
2024/04/04 06:44:49;;;;;;;7.40;1.90;;;;;;;16.00;56.20;97051.06;5036255;28;20199;-72
2024/04/04 06:47:14;;;;;;;3.97;1.70;;;;;;;15.96;55.72;97047.16;5032290;28;20742;-72
2024/04/04 06:49:40;;;;;;;6.00;1.37;;;;;;;16.04;55.71;97036.44;5038428;28;20741;-71
2024/04/04 06:52:06;;;;;;;3.80;1.50;;;;;;;16.03;55.41;97041.91;5034248;28;20213;-73
2024/04/04 06:54:31;;;;;;;7.97;1.63;;;;;;;16.03;55.43;97045.38;5030945;28;20253;-72
2024/04/04 06:56:57;;;;;;;9.57;2.10;;;;;;;15.97;55.52;97041.66;5030643;28;20564;-72
2024/04/04 06:59:22;;;;;;;6.87;1.87;;;;;;;16.16;55.03;97034.09;5031474;28;20251;-72
2024/04/04 07:01:48;;;;;;;9.23;1.90;;;;;;;16.40;54.45;97045.25;5040565;28;20215;-71
2024/04/04 07:04:13;;;;;;;5.30;1.60;;;;;;;16.51;54.11;97046.50;5033328;28;20224;-72
2024/04/04 07:06:39;;;;;;;5.43;1.40;;;;;;;16.68;53.52;97045.19;5030689;28;20180;-72
2024/04/04 07:09:06;;;;;;;8.60;1.87;;;;;;;17.06;53.24;97053.75;5052196;28;20203;-72
2024/04/04 07:11:32;;;;;;;8.00;1.87;;;;;;;17.24;52.87;97040.81;5032860;28;20275;-72
2024/04/04 07:13:57;;;;;;;7.80;1.57;;;;;;;17.24;52.01;97069.94;5053036;28;20509;-72
2024/04/04 07:16:22;;;;;;;6.87;1.53;;;;;;;17.17;51.17;97046.06;5039969;28;20242;-70
2024/04/04 07:18:48;;;;;;;6.00;1.80;;;;;;;17.37;50.99;97060.41;5039955;28;20253;-70
2024/04/04 07:21:13;;;;;;;6.33;1.80;;;;;;;17.34;50.41;97059.78;5040878;28;20248;-74
2024/04/04 07:23:39;;;;;;;8.33;1.77;;;;;;;17.42;50.41;97052.66;5043506;28;20196;-72
2024/04/04 07:26:04;;;;;;;5.73;1.40;;;;;;;17.26;50.64;97059.97;5044050;28;20223;-73
2024/04/04 07:28:30;;;;;;;8.17;1.47;;;;;;;17.12;50.46;97056.44;5034496;28;20219;-75
2024/04/04 07:30:55;;;;;;;4.90;1.67;;;;;;;17.25;50.31;97058.31;5051476;28;20202;-71
2024/04/04 07:33:21;;;;;;;12.50;2.03;;;;;;;17.06;51.02;97067.00;5038267;28;20628;-72
2024/04/04 07:35:46;;;;;;;5.63;1.40;;;;;;;17.05;50.96;97076.78;5043280;28;20186;-73
2024/04/04 07:38:12;;;;;;;5.60;1.40;;;;;;;17.21;50.82;97078.25;5046333;28;20234;-72
2024/04/04 07:40:39;;;;;;;9.53;2.67;;;;;;;17.32;50.79;97088.28;5044253;28;20684;-73
2024/04/04 07:43:06;;;;;;;11.00;1.87;;;;;;;16.94;51.64;97090.53;5044313;28;20436;-73
2024/04/04 07:45:32;;;;;;;5.50;1.63;;;;;;;17.09;52.67;97101.03;5032493;28;20430;-72
2024/04/04 07:47:57;;;;;;;4.77;1.47;;;;;;;17.01;53.00;97094.06;5041144;28;20810;-71
2024/04/04 07:50:23;;;;;;;8.43;1.40;;;;;;;17.10;52.76;97095.53;5023186;28;20443;-70
2024/04/04 07:52:50;;;;;;;11.53;1.50;;;;;;;16.98;53.56;97107.69;5038656;28;20646;-73
2024/04/04 07:55:15;;;;;;;7.13;1.73;;;;;;;16.78;53.87;97096.94;5042446;28;20219;-72
2024/04/04 07:57:41;;;;;;;5.43;1.60;;;;;;;16.90;53.71;97098.03;5045277;28;20492;-73
2024/04/04 08:00:07;;;;;;;7.87;1.90;;;;;;;16.81;53.67;97110.63;5028505;28;20196;-72
2024/04/04 08:02:33;;;;;;;6.40;2.00;;;;;;;16.82;53.69;97106.13;5030388;28;20423;-71
2024/04/04 08:04:58;;;;;;;8.73;1.90;;;;;;;16.93;53.62;97112.72;5035600;28;20223;-71
2024/04/04 08:07:24;;;;;;;5.60;1.30;;;;;;;16.73;53.84;97110.75;5038910;28;20202;-71
2024/04/04 08:09:49;;;;;;;8.17;1.73;;;;;;;16.83;53.65;97121.00;5027386;28;20208;-72
2024/04/04 08:12:15;;;;;;;9.23;2.03;;;;;;;16.82;53.76;97129.97;5043563;28;20186;-72
2024/04/04 08:14:44;;;;;;;8.20;1.67;;;;;;;16.76;54.12;97136.03;5043429;28;20216;-73
2024/04/04 08:17:09;;;;;;;5.43;1.37;;;;;;;16.72;54.86;97133.78;5035959;28;20213;-72
2024/04/04 08:19:35;;;;;;;10.73;2.03;;;;;;;16.70;54.81;97133.13;5048727;28;21053;-71
2024/04/04 08:22:00;;;;;;;6.03;1.50;;;;;;;16.70;54.36;97129.66;5048467;28;20199;-71
2024/04/04 08:24:25;;;;;;;4.70;1.30;;;;;;;16.41;55.07;97131.50;5042298;28;20767;-71
2024/04/04 08:26:51;;;;;;;7.17;1.70;;;;;;;16.49;55.01;97130.56;5031698;28;20211;-71
2024/04/04 08:29:17;;;;;;;5.53;2.00;;;;;;;16.65;55.06;97126.78;5041058;28;20214;-72
2024/04/04 08:31:42;;;;;;;7.90;1.90;;;;;;;16.54;54.89;97130.78;5047295;28;20731;-71
2024/04/04 08:34:08;;;;;;;9.27;1.90;;;;;;;16.55;54.80;97133.25;5043082;28;20202;-72
2024/04/04 08:36:34;;;;;;;11.17;1.77;;;;;;;16.40;54.83;97128.03;5033100;28;20823;-72
2024/04/04 08:38:59;;;;;;;5.70;1.30;;;;;;;16.42;55.00;97133.16;5022683;28;20204;-71
2024/04/04 08:41:26;;;;;;;6.83;1.50;;;;;;;16.41;55.04;97136.78;5026351;28;20425;-70
2024/04/04 08:43:55;;;;;;;9.30;2.03;;;;;;;16.63;54.68;97129.66;5032721;28;20188;-72
2024/04/04 08:46:20;;;;;;;3.83;1.40;;;;;;;16.34;55.32;97131.44;5037956;28;20525;-72
2024/04/04 08:48:46;;;;;;;7.00;1.40;;;;;;;16.71;54.77;97133.94;5032157;28;20537;-72
2024/04/04 08:51:13;;;;;;;2.97;1.30;;;;;;;16.70;54.74;97130.50;5018540;28;20219;-72
2024/04/04 08:53:39;;;;;;;6.57;1.57;;;;;;;16.82;54.81;97128.13;5022802;28;20454;-71
2024/04/04 08:56:05;;;;;;;10.97;2.07;;;;;;;16.81;55.01;97125.69;4981269;28;20462;-70
2024/04/04 08:58:31;;;;;;;6.37;2.13;;;;;;;16.82;54.88;97128.13;5020281;28;20488;-71
2024/04/04 09:00:56;;;;;;;7.97;2.37;;;;;;;16.85;55.07;97132.22;5033248;28;20438;-72
2024/04/04 09:03:22;;;;;;;3.50;1.27;;;;;;;16.94;54.56;97120.50;5033284;28;20201;-70
2024/04/04 09:05:50;;;;;;;8.63;1.90;;;;;;;17.01;54.44;97125.81;5035099;28;20860;-73
2024/04/04 09:08:16;;;;;;;16.20;1.60;;;;;;;16.82;54.33;97122.81;5031464;28;20295;-71
2024/04/04 09:10:45;;;;;;;6.10;2.00;;;;;;;17.18;54.10;97121.03;5041806;28;20481;-71
2024/04/04 09:13:11;;;;;;;3.80;1.10;;;;;;;17.21;53.63;97118.00;5038826;28;20648;-71
2024/04/04 09:15:39;;;;;;;5.60;1.57;;;;;;;17.22;53.61;97122.28;5039815;28;20434;-73
2024/04/04 09:18:06;;;;;;;4.70;1.50;;;;;;;17.34;52.92;97131.28;5035763;28;21025;-73
2024/04/04 09:20:32;;;;;;;5.10;1.40;;;;;;;17.44;53.23;97124.78;5047527;28;20430;-71
2024/04/04 09:23:00;;;;;;;7.07;1.33;;;;;;;17.32;53.19;97127.22;5045729;28;20457;-72
2024/04/04 09:25:26;;;;;;;6.70;1.60;;;;;;;17.50;53.14;97131.97;5040266;28;20450;-71
2024/04/04 09:27:51;;;;;;;4.23;1.40;;;;;;;17.61;52.57;97126.09;5042931;28;20441;-72
2024/04/04 09:30:18;;;;;;;4.93;1.37;;;;;;;17.63;52.64;97129.38;5032609;28;20189;-71
2024/04/04 09:32:45;;;;;;;8.93;1.77;;;;;;;17.81;52.41;97141.22;5044094;28;20194;-73
2024/04/04 09:35:11;;;;;;;4.03;1.17;;;;;;;17.48;52.38;97136.63;5032942;28;20437;-72
2024/04/04 09:37:36;;;;;;;4.90;1.40;;;;;;;17.73;52.49;97123.66;5034522;28;20474;-72
2024/04/04 09:40:04;;;;;;;4.83;1.73;;;;;;;17.57;52.86;97130.16;5018589;28;20505;-71
2024/04/04 09:42:30;;;;;;;3.13;1.20;;;;;;;17.89;52.64;97132.25;5037323;28;20615;-71
2024/04/04 09:44:55;;;;;;;7.80;1.30;;;;;;;17.70;52.74;97126.72;5037872;28;20434;-72
2024/04/04 09:47:21;;;;;;;5.63;1.90;;;;;;;17.92;52.58;97127.38;5046790;28;20507;-72
2024/04/04 09:49:49;;;;;;;3.93;1.33;;;;;;;17.80;53.11;97134.28;5034657;28;20210;-71
2024/04/04 09:52:16;;;;;;;5.53;1.30;;;;;;;17.86;53.16;97138.78;5038061;28;20435;-72
2024/04/04 09:54:42;;;;;;;4.60;1.17;;;;;;;17.89;52.55;97137.56;5041126;28;20441;-72
2024/04/04 09:57:07;;;;;;;3.97;1.20;;;;;;;17.93;52.53;97144.13;5036437;28;21018;-73
2024/04/04 09:59:32;;;;;;;7.30;1.60;;;;;;;17.78;53.45;97157.50;5039455;28;20261;-72
2024/04/04 10:02:05;;;;;;;9.77;1.97;;;;;;;17.35;53.68;97147.97;5042936;28;20831;-72
2024/04/04 10:04:37;;;;;;;5.00;1.30;;;;;;;17.53;54.08;97142.16;5023635;28;20188;-70
2024/04/04 10:07:03;;;;;;;9.33;1.40;;;;;;;17.52;54.35;97153.75;5040288;28;20450;-72
2024/04/04 10:09:37;;;;;;;4.10;1.13;;;;;;;17.13;54.86;97152.59;5014198;28;20980;-73
2024/04/04 10:12:10;;;;;;;5.87;1.73;;;;;;;17.38;55.34;97150.25;5037541;28;20476;-72
2024/04/04 10:14:36;;;;;;;4.93;1.50;;;;;;;17.44;55.45;97146.81;5022118;28;20434;-70
2024/04/04 10:17:05;;;;;;;8.60;2.80;;;;;;;17.37;56.29;97145.16;5044995;28;21106;-73
2024/04/04 10:19:32;;;;;;;8.60;1.30;;;;;;;17.06;57.03;97144.59;5040116;28;20455;-72
2024/04/04 10:21:58;;;;;;;6.17;1.50;;;;;;;17.31;57.25;97144.91;5040965;28;20456;-74
2024/04/04 10:24:31;;;;;;;9.27;1.77;;;;;;;17.42;57.54;97138.25;5052367;28;20455;-72
2024/04/04 10:26:59;;;;;;;5.70;1.57;;;;;;;17.28;57.39;97147.94;5045764;28;20429;-74
2024/04/04 10:29:35;;;;;;;3.63;1.33;;;;;;;17.31;57.83;97150.22;5050372;28;20445;-72
2024/04/04 10:32:01;;;;;;;5.47;1.53;;;;;;;17.29;58.13;97149.59;5034817;28;20433;-71
2024/04/04 10:34:26;;;;;;;6.00;1.53;;;;;;;17.40;58.38;97150.88;5050256;28;20428;-70
2024/04/04 10:36:52;;;;;;;5.47;1.90;;;;;;;17.20;58.66;97153.41;5034049;28;20465;-71
2024/04/04 10:39:21;;;;;;;5.97;2.60;;;;;;;17.35;58.72;97154.13;5041026;28;20718;-73
2024/04/04 10:41:48;;;;;;;6.57;1.60;;;;;;;17.37;58.69;97169.00;5049819;28;20457;-72
2024/04/04 10:44:20;;;;;;;7.43;1.50;;;;;;;17.50;58.34;97151.31;5035694;28;20479;-70
2024/04/04 10:46:53;;;;;;;5.60;1.33;;;;;;;17.54;58.25;97146.44;5041574;28;20430;-70
2024/04/04 10:49:20;;;;;;;4.43;1.40;;;;;;;17.34;58.67;97162.25;5031753;28;20973;-74
2024/04/04 10:51:49;;;;;;;3.97;1.50;;;;;;;17.42;58.43;97154.16;5041595;28;20422;-70
2024/04/04 10:54:16;;;;;;;5.93;1.50;;;;;;;17.57;58.41;97155.84;5030639;28;20467;-73
2024/04/04 10:56:41;;;;;;;4.70;1.40;;;;;;;17.35;58.38;97143.53;5043347;28;20950;-73
2024/04/04 10:59:07;;;;;;;2.53;1.20;;;;;;;17.57;58.16;97140.75;5043649;28;20523;-73
2024/04/04 11:01:33;;;;;;;7.13;1.70;;;;;;;17.51;57.99;97136.25;5045371;28;20303;-71
2024/04/04 11:03:59;;;;;;;6.57;1.50;;;;;;;17.62;57.54;97134.84;5024228;28;20499;-71
2024/04/04 11:06:27;;;;;;;4.03;1.70;;;;;;;17.80;57.70;97126.31;5037866;28;20180;-73
2024/04/04 11:08:54;;;;;;;9.27;1.33;;;;;;;17.75;57.00;97126.13;5000813;28;20211;-72
2024/04/04 11:11:21;;;;;;;5.67;1.33;;;;;;;17.92;56.54;97118.63;5034927;28;20419;-72
2024/04/04 11:13:48;;;;;;;5.97;1.60;;;;;;;18.07;56.96;97129.06;5048715;28;20445;-71
2024/04/04 11:16:14;;;;;;;5.10;1.50;;;;;;;17.89;56.52;97119.84;5037778;28;20458;-71
2024/04/04 11:18:39;;;;;;;6.10;1.40;;;;;;;18.06;55.88;97115.00;5039538;28;20442;-72
2024/04/04 11:21:07;;;;;;;4.63;1.20;;;;;;;18.19;56.01;97124.78;5033857;28;20237;-74
2024/04/04 11:23:34;;;;;;;7.53;1.77;;;;;;;18.18;55.71;97130.31;5041729;28;20188;-74
2024/04/04 11:25:59;;;;;;;5.73;1.77;;;;;;;18.29;55.44;97135.00;5041513;28;20431;-73
2024/04/04 11:28:25;;;;;;;2.30;1.20;;;;;;;18.25;54.70;97129.31;5043662;28;20456;-72
2024/04/04 11:30:51;;;;;;;8.60;1.50;;;;;;;18.18;54.52;97140.91;5036698;28;20200;-72